Terminal Aerodrome Forecast
Issued by NWS North Platte, NE

Home | Current Version | Previous Version | Graphics & Text | Print | Product List | Glossary On
Versions: 1 2 3 4 5 6 7 8 9 10 11 12 13 14 15 16 17 18 19
970
FTUS43 KLBF 231120
TAFVTN
TAF
KVTN 231120Z 2312/2412 04012G20KT 1SM -SN BR OVC005
     FM231600 04017G24KT 1/2SM SN BLSN VV004
     FM240200 01015G24KT 1SM -SN OVC008=

USA.gov is the U.S. government's official web portal to all federal, state and local government web resources and services.